Latest Weather Observations for Ceduna

IDS60801

Issued at 11:21 am CST Tuesday 16 August 2022 (issued every 10 minutes, with the page automatically refreshed every 10 minutes)

About weather observations | Map of weather stations | Latest weather observations for SA | Other Formats
Station Details ID: 018012 Name: CEDUNA AMO Lat: -32.13 Lon: 133.70 Height: 15.3 m
Data from the previous 72 hours. | See also: Recent months at Ceduna
Date/Time
CST
Temp
°C
App
Temp
°C
Dew
Point
°C
Rel
Hum
%
Delta-T
°C
Wind Press
QNH
hPa
Press
MSL
hPa
Rain since
9am
mm
Dir  Spd
km/h
Gust
km/h
Spd
kts
Gust
kts
16/11:00am 16.0 13.8 8.0 59 4.0 NNE 9 15 5 8 1022.0 1022.0 0.0
16/10:30am 15.7 13.1 7.7 59 4.0 NNE 11 15 6 8 1022.1 1022.1 0.0
16/10:00am 15.4 13.3 8.2 62 3.6 NNE 9 13 5 7 1021.9 1021.9 0.0
16/09:30am 14.5 12.9 8.9 69 2.8 NNE 7 11 4 6 1022.0 1022.0 0.0
16/09:00am 12.8 11.0 9.6 81 1.6 NNE 9 11 5 6 1022.0 1022.0 0.0
16/08:30am 10.9 9.1 9.3 90 0.8 N 9 11 5 6 1022.0 1022.0 0.0
16/08:00am 9.8 7.8 8.6 92 0.6 NNE 9 11 5 6 1021.8 1021.8 0.0
16/07:30am 9.2 7.4 8.1 93 0.5 NNE 7 11 4 6 1021.8 1021.8 0.0
16/07:00am 8.6 6.7 7.7 94 0.4 N 7 11 4 6 1021.6 1021.6 0.0
16/06:30am 8.6 6.8 7.8 95 0.4 N 7 9 4 5 1021.2 1021.2 0.0
16/06:00am 8.2 6.3 7.4 95 0.4 N 7 7 4 4 1020.9 1020.9 0.0
16/05:30am 7.6 4.8 6.9 95 0.3 N 11 11 6 6 1020.6 1020.6 0.0
16/05:00am 7.0 4.4 6.1 94 0.4 N 9 9 5 5 1020.5 1020.5 0.0
16/04:30am 7.2 5.0 6.1 93 0.5 N 7 7 4 4 1020.2 1020.2 0.0
16/04:00am 7.9 5.5 6.8 93 0.5 N 9 11 5 6 1020.3 1020.3 0.0
16/03:30am 7.5 6.3 6.4 93 0.5 NNW 2 6 1 3 1020.2 1020.2 0.0
16/03:00am 7.1 4.9 6.0 93 0.5 NNW 7 9 4 5 1020.1 1020.1 0.0
16/02:30am 7.6 6.1 6.7 94 0.4 NNW 4 9 2 5 1020.1 1020.1 0.0
16/02:00am 7.8 5.0 6.9 94 0.4 N 11 13 6 7 1020.2 1020.2 0.0
16/01:30am 7.7 5.2 6.5 92 0.5 NNW 9 13 5 7 1020.2 1020.2 0.0
16/01:00am 7.8 5.6 5.4 85 1.1 WNW 6 9 3 5 1020.1 1020.1 0.0
16/12:30am 11.0 8.3 9.1 88 0.9 WSW 13 17 7 9 1020.2 1020.2 0.0
16/12:00am 10.7 7.9 8.6 87 1.0 SW 13 17 7 9 1020.4 1020.4 0.0
 
Date/Time
CST
Temp
°C
App
Temp
°C
Dew
Point
°C
Rel
Hum
%
Delta-T
°C
Wind Press
QNH
hPa
Press
MSL
hPa
Rain since
9am
mm
Dir  Spd
km/h
Gust
km/h
Spd
kts
Gust
kts
15/11:30pm 10.8 8.0 8.4 85 1.2 SW 13 17 7 9 1020.3 1020.3 0.0
15/11:00pm 11.1 7.9 8.5 84 1.3 SW 15 17 8 9 1020.5 1020.5 0.0
15/10:30pm 11.4 8.2 8.3 81 1.5 SW 15 19 8 10 1020.5 1020.5 0.0
15/10:00pm 11.6 8.4 8.5 81 1.5 SW 15 17 8 9 1020.5 1020.5 0.0
15/09:30pm 12.7 9.2 8.6 76 2.0 SW 17 20 9 11 1020.3 1020.3 0.0
15/09:00pm 12.5 8.9 8.4 76 2.0 SW 17 20 9 11 1020.2 1020.2 0.0
15/08:30pm 12.5 8.5 8.2 75 2.1 SW 19 22 10 12 1020.1 1020.1 0.0
15/08:00pm 13.0 8.8 8.1 72 2.4 SW 20 28 11 15 1019.9 1019.9 0.0
15/07:30pm 13.2 8.6 8.3 72 2.4 SW 22 30 12 16 1019.7 1019.7 0.0
15/07:00pm 13.1 8.1 8.0 71 2.5 SW 24 33 13 18 1019.3 1019.3 0.0
15/06:30pm 13.2 8.2 8.1 71 2.5 SW 24 35 13 19 1019.1 1019.1 0.0
15/06:00pm 13.6 7.9 8.4 71 2.6 WSW 28 35 15 19 1018.7 1018.7 0.0
15/05:30pm 13.9 8.1 8.1 68 2.9 WSW 28 37 15 20 1018.2 1018.2 0.0
15/05:00pm 14.0 8.6 9.6 75 2.3 WSW 28 37 15 20 1017.9 1017.9 0.0
15/04:30pm 15.2 9.7 9.1 67 3.1 SW 28 35 15 19 1017.7 1017.7 0.0
15/04:00pm 15.1 9.1 8.6 65 3.3 SW 30 43 16 23 1017.7 1017.7 0.0
15/03:30pm 16.1 10.7 9.5 65 3.4 WSW 28 37 15 20 1017.7 1017.7 0.0
15/03:00pm 16.1 10.1 10.2 68 3.1 WSW 32 43 17 23 1017.7 1017.7 0.0
15/02:30pm 16.1 11.0 10.6 70 2.9 SW 28 39 15 21 1017.6 1017.6 0.0
15/02:00pm 15.4 8.7 9.7 69 3.0 SW 35 44 19 24 1017.5 1017.5 0.0
15/01:30pm 15.1 8.4 9.7 70 2.8 SW 35 46 19 25 1017.5 1017.5 0.0
15/01:00pm 16.5 9.8 9.7 64 3.6 WSW 35 50 19 27 1017.7 1017.7 0.0
15/12:30pm 16.2 9.5 9.6 65 3.4 SW 35 48 19 26 1017.7 1017.7 0.0
15/12:00pm 15.4 8.6 9.3 67 3.1 SW 35 46 19 25 1017.7 1017.7 0.0
15/11:30am 15.9 9.0 8.9 63 3.6 SW 35 46 19 25 1017.8 1017.8 0.0
15/11:00am 14.8 8.4 9.2 69 2.9 WSW 33 46 18 25 1017.7 1017.7 0.0
15/10:30am 14.6 8.1 9.0 69 2.8 WSW 33 48 18 26 1017.4 1017.4 0.0
15/10:19am 14.4 8.7 9.8 74 2.4 WSW 30 48 16 26 1017.4 1017.4 0.0
15/10:00am 14.3 7.6 9.7 74 2.4 WSW 35 46 19 25 1017.3 1017.3 0.0
15/09:30am 14.0 7.6 9.2 73 2.4 WSW 33 48 18 26 1016.9 1016.9 0.0
15/09:00am 14.2 7.6 7.7 65 3.2 WSW 32 39 17 21 1016.5 1016.5 0.0
15/08:30am 14.0 7.5 8.0 67 3.0 WSW 32 44 17 24 1016.2 1016.2 0.0
15/08:00am 13.6 6.9 7.4 66 3.0 WSW 32 43 17 23 1015.8 1015.8 0.0
15/07:30am 13.4 6.9 8.0 70 2.7 WSW 32 43 17 23 1015.3 1015.3 0.0
15/07:00am 12.9 6.1 6.7 66 3.0 WSW 32 44 17 24 1015.2 1015.2 0.0
15/06:30am 13.0 6.6 8.5 74 2.2 WSW 32 39 17 21 1015.0 1015.0 0.0
15/06:00am 12.8 6.6 7.9 72 2.4 WSW 30 39 16 21 1014.9 1014.9 0.0
15/05:30am 13.0 7.0 8.5 74 2.2 WSW 30 39 16 21 1014.8 1014.8 0.0
15/05:00am 13.2 6.4 7.9 70 2.6 WSW 33 44 18 24 1014.7 1014.7 0.0
15/04:30am 13.2 7.0 9.3 77 2.0 WSW 32 44 17 24 1014.7 1014.7 0.0
15/04:00am 13.5 8.2 9.9 79 1.9 WSW 28 37 15 20 1014.5 1014.5 0.0
15/03:30am 13.5 8.0 10.7 83 1.5 W 30 43 16 23 1014.6 1014.6 0.0
15/03:00am 13.7 8.7 10.9 83 1.5 WSW 28 37 15 20 1014.7 1014.7 0.0
15/02:30am 13.2 10.2 12.4 95 0.4 W 20 28 11 15 1014.6 1014.6 0.0
15/02:00am 11.0 9.1 10.4 96 0.3 NNW 11 15 6 8 1014.7 1014.7 0.0
15/01:30am 10.1 7.5 9.2 94 0.4 NNW 13 17 7 9 1014.7 1014.7 0.0
15/01:00am 12.0 9.9 11.1 94 0.5 WNW 13 17 7 9 1014.6 1014.6 0.0
15/12:30am 11.6 9.9 10.0 90 0.8 WNW 9 13 5 7 1014.5 1014.5 0.0
15/12:00am 12.4 9.4 10.8 90 0.8 W 17 20 9 11 1014.5 1014.5 0.0
 
Date/Time
CST
Temp
°C
App
Temp
°C
Dew
Point
°C
Rel
Hum
%
Delta-T
°C
Wind Press
QNH
hPa
Press
MSL
hPa
Rain since
9am
mm
Dir  Spd
km/h
Gust
km/h
Spd
kts
Gust
kts
14/11:30pm 12.9 9.5 11.1 89 0.9 W 20 28 11 15 1014.4 1014.4 0.0
14/11:00pm 12.6 8.7 10.7 88 1.0 W 22 30 12 16 1014.3 1014.3 0.0
14/10:30pm 10.5 7.5 7.9 84 1.3 WNW 13 19 7 10 1014.4 1014.4 0.0
14/10:00pm 8.8 6.8 7.1 89 0.8 NE 7 11 4 6 1013.8 1013.8 0.0
14/09:30pm 8.5 5.3 6.8 89 0.8 NE 13 13 7 7 1013.6 1013.6 0.0
14/09:00pm 9.3 6.2 7.4 88 0.9 ENE 13 15 7 8 1013.6 1013.6 0.0
14/08:30pm 10.8 8.1 8.9 88 0.9 E 13 15 7 8 1013.7 1013.7 0.0
14/08:00pm 10.5 7.7 8.4 87 1.0 E 13 17 7 9 1013.8 1013.8 0.0
14/07:30pm 11.1 8.4 9.0 87 1.0 E 13 15 7 8 1013.8 1013.8 0.0
14/07:00pm 10.7 7.8 8.3 85 1.2 ESE 13 15 7 8 1014.0 1014.0 0.0
14/06:30pm 11.8 9.7 8.3 79 1.7 SE 9 9 5 5 1013.9 1013.9 0.0
14/06:00pm 13.3 11.3 8.8 74 2.3 SE 9 13 5 7 1013.6 1013.6 0.0
14/05:30pm 15.9 14.5 8.9 63 3.6 S 6 9 3 5 1013.6 1013.6 0.0
14/05:00pm 16.9 15.2 7.5 54 4.7 SSW 6 7 3 4 1013.7 1013.7 0.0
14/04:30pm 16.1 14.3 8.1 59 4.0 SSW 7 11 4 6 1013.9 1013.9 0.0
14/04:00pm 16.9 14.6 7.5 54 4.7 SSW 9 13 5 7 1014.2 1014.2 0.0
14/03:30pm 17.1 14.1 7.5 53 4.8 WSW 13 17 7 9 1014.7 1014.7 0.0
14/03:00pm 17.4 14.4 7.7 53 4.9 W 13 19 7 10 1015.2 1015.2 0.0
14/02:30pm 17.0 13.2 7.6 54 4.7 WNW 17 22 9 12 1015.5 1015.5 0.0
14/02:00pm 16.4 12.2 7.3 55 4.5 WNW 19 24 10 13 1015.8 1015.8 0.0
14/01:30pm 15.4 11.8 6.9 57 4.2 WNW 15 19 8 10 1016.3 1016.3 0.0
14/01:00pm 15.2 11.8 6.0 54 4.4 WNW 13 20 7 11 1016.9 1016.9 0.0
14/12:30pm 14.5 11.5 6.1 57 4.0 NNW 11 20 6 11 1017.4 1017.4 0.0
14/12:00pm 14.1 10.7 5.7 57 4.0 NNW 13 20 7 11 1018.0 1018.0 0.0
14/11:30am 13.7 10.3 5.8 59 3.7 N 13 17 7 9 1018.3 1018.3 0.0
14/11:00am 13.0 9.6 6.1 63 3.3 NNW 13 19 7 10 1018.9 1018.9 0.0
14/10:30am 13.0 10.0 7.7 70 2.6 NNW 13 17 7 9 1019.1 1019.1 0.0
14/10:00am 12.1 9.9 9.3 83 1.4 N 11 13 6 7 1019.5 1019.5 0.0
14/09:30am 10.1 8.5 8.7 91 0.7 N 7 9 4 5 1019.6 1019.6 0.0
14/09:00am 8.4 6.6 7.8 96 0.3 N 7 9 4 5 1019.7 1019.7 0.0
14/08:30am 6.6 4.0 6.3 98 0.1 NNW 9 15 5 8 1019.6 1019.6 0.0
14/08:00am 5.0 2.1 4.9 99 0.0 NNW 9 13 5 7 1019.3 1019.3 0.0
14/07:30am 3.0 0.3 2.6 97 0.2 NNW 6 7 3 4 1018.8 1018.8 0.0
14/07:00am 3.3 0.1 3.0 98 0.1 NNW 9 9 5 5 1018.4 1018.4 0.0
14/06:30am 3.0 -0.7 2.6 97 0.2 NNW 11 13 6 7 1018.4 1018.4 0.0
14/06:00am 3.0 0.1 2.7 98 0.1 N 7 9 4 5 1018.1 1018.1 0.0
14/05:30am 3.2 0.4 2.9 98 0.1 N 7 9 4 5 1018.0 1018.0 0.0
14/05:00am 2.9 -0.4 2.5 97 0.2 N 9 11 5 6 1018.1 1018.1 0.0
14/04:30am 2.6 -0.7 2.2 97 0.2 N 9 9 5 5 1018.3 1018.3 0.0
14/04:00am 3.0 -0.3 2.6 97 0.2 N 9 11 5 6 1018.7 1018.7 0.0
14/03:30am 3.7 0.5 3.1 96 0.2 NNW 9 11 5 6 1018.8 1018.8 0.0
14/03:00am 4.0 0.5 3.6 97 0.2 NNW 11 13 6 7 1018.9 1018.9 0.0
14/02:30am 3.9 1.1 3.3 96 0.2 NNW 7 9 4 5 1019.2 1019.2 0.0
14/02:00am 3.9 0.7 3.3 96 0.2 NNW 9 11 5 6 1019.4 1019.4 0.0
14/01:30am 4.2 1.1 3.6 96 0.2 N 9 9 5 5 1019.2 1019.2 0.0
14/01:00am 4.7 2.1 4.1 96 0.3 NNW 7 9 4 5 1019.4 1019.4 0.0
14/12:30am 5.0 2.0 4.3 95 0.3 NNW 9 11 5 6 1019.6 1019.6 0.0
14/12:00am 6.3 4.0 5.6 95 0.3 NNW 7 9 4 5 1019.7 1019.7 0.0
 
Date/Time
CST
Temp
°C
App
Temp
°C
Dew
Point
°C
Rel
Hum
%
Delta-T
°C
Wind Press
QNH
hPa
Press
MSL
hPa
Rain since
9am
mm
Dir  Spd
km/h
Gust
km/h
Spd
kts
Gust
kts
13/11:30pm 6.3 3.6 5.4 94 0.4 NNW 9 11 5 6 1019.9 1019.9 0.0
13/11:00pm 7.6 4.7 6.7 94 0.4 NW 11 15 6 8 1020.0 1020.0 0.0
13/10:30pm 8.1 5.3 7.0 93 0.5 NW 11 13 6 7 1019.9 1019.9 0.0
13/10:00pm 8.6 5.9 7.5 93 0.5 NW 11 17 6 9 1020.1 1020.1 0.0
13/09:30pm 8.3 5.5 7.1 92 0.6 NNW 11 13 6 7 1020.3 1020.3 0.0
13/09:00pm 9.5 6.8 7.4 87 1.0 NW 11 13 6 7 1020.3 1020.3 0.0
13/08:30pm 10.5 7.2 6.6 77 1.8 W 13 17 7 9 1020.3 1020.3 0.0
13/08:00pm 10.0 8.9 8.3 89 0.8 W 4 9 2 5 1020.5 1020.5 0.0
13/07:30pm 9.9 9.4 7.8 87 1.0 CALM 0 0 0 0 1020.4 1020.4 0.0
13/07:00pm 10.0 9.1 7.6 85 1.1 SSW 2 6 1 3 1020.1 1020.1 0.0
13/06:30pm 10.7 7.7 7.8 82 1.4 SW 13 17 7 9 1020.0 1020.0 0.0
13/06:00pm 10.7 7.4 7.9 83 1.4 SSW 15 24 8 13 1019.9 1019.9 0.0
13/05:30pm 12.1 7.7 7.4 73 2.3 WSW 20 30 11 16 1019.8 1019.8 0.0
13/05:00pm 12.6 8.2 6.4 66 2.9 WSW 19 28 10 15 1019.8 1019.8 0.0
13/04:30pm 13.4 8.8 6.3 62 3.4 WSW 20 28 11 15 1019.8 1019.8 0.0
13/04:00pm 13.2 8.6 6.5 64 3.2 SW 20 26 11 14 1019.8 1019.8 0.0
13/03:30pm 13.2 8.6 6.5 64 3.2 SW 20 26 11 14 1019.9 1019.9 0.0
13/03:00pm 13.7 9.2 7.0 64 3.2 SW 20 28 11 15 1019.9 1019.9 0.0
13/02:30pm 14.0 9.6 7.3 64 3.3 SW 20 28 11 15 1019.9 1019.9 0.0
13/02:00pm 14.0 8.7 6.6 61 3.6 WSW 24 32 13 17 1020.2 1020.2 0.0
13/01:30pm 14.2 9.2 6.6 60 3.7 WSW 22 32 12 17 1020.3 1020.3 0.0
13/01:00pm 13.9 9.4 6.0 59 3.8 WSW 19 24 10 13 1020.7 1020.7 0.0
13/12:30pm 13.4 7.8 7.0 65 3.1 WSW 26 35 14 19 1021.2 1021.2 0.0
13/12:00pm 13.2 8.5 6.1 62 3.4 SW 20 28 11 15 1021.4 1021.4 0.0
13/11:30am 12.7 8.2 6.1 64 3.1 SW 19 32 10 17 1021.6 1021.6 0.0

Other formats

Comma delimited format used in spreadsheet applications
http://www.bom.gov.au/fwo/IDS60801/IDS60801.94653.axf

JavaScript Object Notation format (JSON) in row-major order
http://www.bom.gov.au/fwo/IDS60801/IDS60801.94653.json

Data quality

Most of these data are generated automatically and are frequently updated. Quality checks on data are not normally performed. It is possible for incorrect values to appear. Refer to information at About Latest Weather Observations and please check the disclaimer before using these data.